createdAt,value
2023-05-24T00:02:20.186Z,2.53
2023-05-24T00:08:22.055Z,2.13
2023-05-24T00:14:23.852Z,2.40
2023-05-24T00:20:25.839Z,2.55
2023-05-24T00:26:27.762Z,2.90
2023-05-24T00:32:29.883Z,2.58
2023-05-24T00:38:31.777Z,2.65
2023-05-24T00:44:33.722Z,3.08
2023-05-24T00:50:36.972Z,2.80
2023-05-24T00:56:38.849Z,2.83
2023-05-24T01:02:41.005Z,2.72
2023-05-24T01:09:07.152Z,2.80
2023-05-24T01:15:17.553Z,3.40
2023-05-24T01:21:38.732Z,2.70
2023-05-24T01:27:41.197Z,3.63
2023-05-24T01:33:44.016Z,3.03
2023-05-24T01:39:46.548Z,3.47
2023-05-24T01:46:08.656Z,2.90
2023-05-24T01:52:15.955Z,2.90
2023-05-24T01:58:21.193Z,2.55
2023-05-24T02:04:24.304Z,3.53
2023-05-24T02:10:27.383Z,4.15
2023-05-24T02:16:30.847Z,3.63
2023-05-24T02:22:32.700Z,3.22
2023-05-24T02:28:34.547Z,3.53
2023-05-24T02:34:36.409Z,3.80
2023-05-24T02:40:38.324Z,3.28
2023-05-24T02:46:40.302Z,3.63
2023-05-24T02:52:52.621Z,4.28
2023-05-24T02:53:54.432Z,3.00
2023-05-24T02:54:56.439Z,3.78
2023-05-24T02:55:59.622Z,3.65
2023-05-24T02:57:01.672Z,3.80
2023-05-24T03:03:47.972Z,3.80
2023-05-24T03:09:49.951Z,4.20
2023-05-24T03:15:51.755Z,3.92
2023-05-24T03:21:54.655Z,3.60
2023-05-24T03:27:56.486Z,3.58
2023-05-24T03:33:58.385Z,3.83
2023-05-24T03:40:00.401Z,3.38
2023-05-24T03:46:02.305Z,3.60
2023-05-24T03:52:04.578Z,4.30
2023-05-24T03:58:06.432Z,3.90
2023-05-24T04:04:08.308Z,3.90
2023-05-24T04:10:10.395Z,4.38
2023-05-24T04:16:14.216Z,4.10
2023-05-24T04:22:16.184Z,4.47
2023-05-24T04:28:18.158Z,4.05
2023-05-24T04:34:22.430Z,4.85
2023-05-24T04:40:24.319Z,4.55
2023-05-24T04:46:27.326Z,4.47
2023-05-24T04:52:31.356Z,4.38
2023-05-24T04:58:33.404Z,4.38
2023-05-24T05:04:35.312Z,4.78
2023-05-24T05:10:37.655Z,4.05
2023-05-24T05:16:41.234Z,4.18
2023-05-24T05:22:47.395Z,4.30
2023-05-24T05:28:49.349Z,3.50
2023-05-24T05:34:51.190Z,5.53
2023-05-24T05:40:53.325Z,4.93
2023-05-24T05:46:55.216Z,4.72
2023-05-24T05:52:58.036Z,4.57
2023-05-24T05:58:59.884Z,4.30
2023-05-24T06:05:01.819Z,4.18
2023-05-24T06:11:05.001Z,5.68
2023-05-24T06:17:07.121Z,5.13
2023-05-24T06:23:09.473Z,4.22
2023-05-24T06:29:11.946Z,5.32
2023-05-24T06:35:14.325Z,4.43
2023-05-24T06:41:16.425Z,3.97
2023-05-24T06:47:18.459Z,5.30
2023-05-24T06:53:20.426Z,4.47
2023-05-24T06:59:22.908Z,3.75
2023-05-24T07:05:24.834Z,3.85
2023-05-24T07:11:27.570Z,3.90
2023-05-24T07:17:29.606Z,5.32
2023-05-24T07:23:32.467Z,4.93
2023-05-24T07:29:34.312Z,4.22
2023-05-24T07:35:36.265Z,4.63
2023-05-24T07:41:38.290Z,4.13
2023-05-24T07:47:40.189Z,4.18
2023-05-24T07:53:42.128Z,4.57
2023-05-24T07:59:43.973Z,3.95
2023-05-24T08:05:46.001Z,4.72
2023-05-24T08:11:47.958Z,4.75
2023-05-24T08:17:49.835Z,3.83
2023-05-24T08:23:51.713Z,3.92
2023-05-24T08:29:56.813Z,4.90
2023-05-24T08:35:58.900Z,4.50
2023-05-24T08:42:09.232Z,4.22
2023-05-24T08:48:14.013Z,4.28
2023-05-24T08:54:16.475Z,3.45
2023-05-24T09:00:19.510Z,3.22
2023-05-24T09:06:22.819Z,3.67
2023-05-24T09:12:36.558Z,3.75
2023-05-24T09:18:42.976Z,4.60
2023-05-24T09:24:47.800Z,4.47
2023-05-24T09:31:02.751Z,5.75
2023-05-24T09:37:07.275Z,4.30
2023-05-24T09:43:15.431Z,5.03
2023-05-24T09:49:17.222Z,4.43
2023-05-24T09:55:20.421Z,4.68
2023-05-24T10:01:24.585Z,4.30
2023-05-24T10:07:27.283Z,4.25
2023-05-24T10:13:29.742Z,4.60
2023-05-24T10:19:35.766Z,5.03
2023-05-24T10:25:44.761Z,5.70
2023-05-24T10:31:47.276Z,4.70
2023-05-24T10:37:50.282Z,5.65
2023-05-24T10:44:08.561Z,5.57
2023-05-24T10:50:22.289Z,5.53
2023-05-24T10:56:27.130Z,4.32
2023-05-24T11:02:36.125Z,5.43
2023-05-24T11:08:43.897Z,5.18
2023-05-24T11:14:52.348Z,4.07
2023-05-24T11:20:59.228Z,4.07
2023-05-24T11:27:02.604Z,4.95
2023-05-24T11:33:04.715Z,5.68
2023-05-24T11:39:09.514Z,6.85
2023-05-24T11:45:11.772Z,4.40
2023-05-24T11:51:13.561Z,5.53
2023-05-24T11:57:16.703Z,5.45
2023-05-24T12:03:19.278Z,5.85
2023-05-24T12:09:22.298Z,5.45
2023-05-24T12:15:24.500Z,5.38
2023-05-24T12:21:30.428Z,4.75
2023-05-24T12:27:34.684Z,4.75
2023-05-24T12:33:37.567Z,4.50
2023-05-24T12:39:40.060Z,5.63
2023-05-24T12:45:41.937Z,4.60
2023-05-24T12:51:43.806Z,4.43
2023-05-24T12:57:53.184Z,5.68
2023-05-24T13:03:55.082Z,5.32
2023-05-24T13:09:58.845Z,5.13
2023-05-24T13:16:00.870Z,4.68
2023-05-24T13:22:02.852Z,4.57
2023-05-24T13:28:04.945Z,4.53
2023-05-24T13:34:07.470Z,4.45
2023-05-24T13:40:09.790Z,5.15
2023-05-24T13:46:13.241Z,4.25
2023-05-24T13:52:15.144Z,5.67
2023-05-24T13:58:17.024Z,5.32
2023-05-24T14:04:19.753Z,4.93
2023-05-24T14:10:21.969Z,4.90
2023-05-24T14:16:25.088Z,6.45
2023-05-24T14:22:29.391Z,5.10
2023-05-24T14:28:31.294Z,5.93
2023-05-24T14:34:33.147Z,5.38
2023-05-24T14:40:37.175Z,6.72
2023-05-24T14:46:40.779Z,5.05
2023-05-24T14:52:42.657Z,4.50
2023-05-24T14:58:44.635Z,6.18
2023-05-24T15:04:46.965Z,5.07
2023-05-24T15:10:49.029Z,4.82
2023-05-24T15:16:51.085Z,5.30
2023-05-24T15:22:53.165Z,5.30
2023-05-24T15:28:55.101Z,5.72
2023-05-24T15:34:57.063Z,5.43
2023-05-24T15:40:59.149Z,6.15
2023-05-24T15:47:01.974Z,6.57
2023-05-24T15:53:04.477Z,5.85
2023-05-24T15:59:06.439Z,4.80
2023-05-24T16:05:08.715Z,4.53
2023-05-24T16:11:10.802Z,5.45
2023-05-24T16:17:13.232Z,5.68
2023-05-24T16:23:16.069Z,4.72
2023-05-24T16:29:20.543Z,5.72
2023-05-24T16:35:22.387Z,5.57
2023-05-24T16:41:24.332Z,5.13
2023-05-24T16:47:29.477Z,5.70
2023-05-24T16:53:31.623Z,5.90
2023-05-24T16:59:34.135Z,5.03
2023-05-24T17:05:36.172Z,5.28
2023-05-24T17:11:38.295Z,4.90
2023-05-24T17:17:40.238Z,6.47
2023-05-24T17:23:42.158Z,5.85
2023-05-24T17:29:44.895Z,5.53
2023-05-24T17:35:46.725Z,5.75
2023-05-24T17:41:48.598Z,6.10
2023-05-24T17:47:50.498Z,5.60
2023-05-24T17:53:52.333Z,5.28
2023-05-24T17:59:54.253Z,5.85
2023-05-24T18:05:56.506Z,5.95
2023-05-24T18:11:58.545Z,6.03
2023-05-24T18:18:00.615Z,5.50
2023-05-24T18:24:02.608Z,5.88
2023-05-24T18:30:06.790Z,5.95
2023-05-24T18:36:08.749Z,6.60
2023-05-24T18:42:12.624Z,5.93
2023-05-24T18:48:14.511Z,4.97
2023-05-24T18:54:16.384Z,5.90
2023-05-24T19:00:22.871Z,5.78
2023-05-24T19:06:24.880Z,6.05
2023-05-24T19:12:26.694Z,5.72
2023-05-24T19:18:28.561Z,6.15
2023-05-24T19:24:30.334Z,6.25
2023-05-24T19:30:32.329Z,5.78
2023-05-24T19:36:34.426Z,5.82
2023-05-24T19:42:36.373Z,5.90
2023-05-24T19:48:38.853Z,6.90
2023-05-24T19:54:41.367Z,6.10
2023-05-24T20:00:43.158Z,5.45
2023-05-24T20:06:45.071Z,6.20
2023-05-24T20:12:46.907Z,5.53
2023-05-24T20:18:48.883Z,5.32
2023-05-24T20:24:50.894Z,6.03
2023-05-24T20:30:55.109Z,5.53
2023-05-24T20:36:56.892Z,7.00
2023-05-24T20:42:58.790Z,5.63
2023-05-24T20:49:00.514Z,6.00
2023-05-24T20:55:02.454Z,5.60
2023-05-24T21:01:04.297Z,7.65
2023-05-24T21:07:07.845Z,6.05
2023-05-24T21:13:09.747Z,5.67
2023-05-24T21:19:11.551Z,6.60
2023-05-24T21:25:13.334Z,6.38
2023-05-24T21:31:15.390Z,5.40
2023-05-24T21:37:17.589Z,5.32
2023-05-24T21:43:19.426Z,5.30
2023-05-24T21:49:21.477Z,5.63
2023-05-24T21:55:23.262Z,6.05
2023-05-24T22:01:25.118Z,6.25
2023-05-24T22:07:27.025Z,6.55
2023-05-24T22:13:29.211Z,6.05
2023-05-24T22:19:39.889Z,6.22
2023-05-24T22:25:42.773Z,5.30
2023-05-24T22:31:44.875Z,6.07
2023-05-24T22:37:46.730Z,5.95
2023-05-24T22:43:48.508Z,5.53
2023-05-24T22:49:54.196Z,5.47
2023-05-24T22:55:56.058Z,5.47
2023-05-24T23:01:57.915Z,4.63
2023-05-24T23:08:00.203Z,6.47
2023-05-24T23:14:02.449Z,5.82
2023-05-24T23:20:05.180Z,5.68
2023-05-24T23:26:07.177Z,6.70
2023-05-24T23:32:09.526Z,6.03
2023-05-24T23:38:12.422Z,5.75
2023-05-24T23:44:14.228Z,6.47
2023-05-24T23:50:22.276Z,6.38
2023-05-24T23:56:24.104Z,5.78
